DAL67 LIRF-KATL
Flight info
| Callsign | DAL67 |
|---|---|
| Flight time | N/A |
| Altitude | 34000 |
| Route | PODOX DCT TOBGA DCT DOBIM DCT PIGOS DCT BODRU DCT KOTIT DCT ETREK/N0468F360 DCT NOQAS DCT LERGA DCT VALKU/N0469F350 DCT PECNO DCT LMG/N0467F360 DCT MANAK UT183 BAGAD DCT LARLA DCT RATKA/M081F360 DCT SOMAX DCT 50N020W 50N030W 50N040W 48N050W DCT NICSO/N0464F360 N260B ALLEX/N0470F380 DCT AJJAY DCT PEASE DCT GDM DCT PWL DCT SAX/N0477F400 DCT LRP DCT MOL DCT FLASK OZZZI2 |
| Aircraft | A339/H-SADE1E2E3GHIJ3J5M1P2RWXY/LB2D1 |
Departure
| Time | 2026-05-01 11:32 |
|---|---|
| Airport | Rome–Fiumicino Leonardo da Vinci International Airport (LIRF) |
Arrival
| Time | N/A |
|---|---|
| Airport | Hartsfield Jackson Atlanta International Airport (KATL) |
| Time | Latitude | Longitude | Altitude | Speed | Heading |
|---|---|---|---|---|---|
| 2026-05-01 11:06 | 41.79728 | 12.24842 | 21 ft | 0 kts | 249° |
| 2026-05-01 11:19 | 41.79730 | 12.24851 | 21 ft | 1 kts | 249° |
| 2026-05-01 11:19 | 41.79739 | 12.24880 | 21 ft | 3 kts | 249° |
| 2026-05-01 11:19 | 41.79749 | 12.24915 | 22 ft | 4 kts | 270° |
| 2026-05-01 11:20 | 41.79743 | 12.24948 | 22 ft | 2 kts | 355° |
| 2026-05-01 11:20 | 41.79741 | 12.24949 | 22 ft | 0 kts | 0° |
| 2026-05-01 11:23 | 41.79743 | 12.24947 | 22 ft | 1 kts | 350° |
| 2026-05-01 11:23 | 41.79788 | 12.24922 | 22 ft | 13 kts | 337° |
| 2026-05-01 11:23 | 41.79876 | 12.24873 | 21 ft | 14 kts | 339° |
| 2026-05-01 11:24 | 41.79969 | 12.24825 | 20 ft | 16 kts | 339° |
| 2026-05-01 11:24 | 41.80076 | 12.24778 | 19 ft | 17 kts | 349° |
| 2026-05-01 11:24 | 41.80207 | 12.24918 | 22 ft | 10 kts | 86° |
| 2026-05-01 11:25 | 41.80205 | 12.25013 | 23 ft | 13 kts | 89° |
| 2026-05-01 11:25 | 41.80290 | 12.25377 | 22 ft | 21 kts | 70° |
| 2026-05-01 11:25 | 41.80342 | 12.25564 | 21 ft | 21 kts | 69° |
| 2026-05-01 11:26 | 41.80392 | 12.25742 | 20 ft | 21 kts | 70° |
| 2026-05-01 11:26 | 41.80492 | 12.26110 | 18 ft | 23 kts | 70° |
| 2026-05-01 11:26 | 41.80548 | 12.26315 | 20 ft | 22 kts | 70° |
| 2026-05-01 11:27 | 41.80600 | 12.26503 | 20 ft | 21 kts | 70° |
| 2026-05-01 11:27 | 41.80652 | 12.26692 | 18 ft | 21 kts | 69° |
| 2026-05-01 11:27 | 41.80705 | 12.26882 | 15 ft | 22 kts | 69° |
| 2026-05-01 11:27 | 41.80742 | 12.27010 | 14 ft | 10 kts | 68° |
| 2026-05-01 11:28 | 41.80793 | 12.27044 | 14 ft | 8 kts | 4° |
| 2026-05-01 11:28 | 41.80849 | 12.27024 | 14 ft | 8 kts | 340° |
| 2026-05-01 11:28 | 41.80903 | 12.26999 | 15 ft | 8 kts | 340° |
| 2026-05-01 11:29 | 41.80958 | 12.26925 | 15 ft | 4 kts | 258° |
| 2026-05-01 11:29 | 41.80953 | 12.26908 | 15 ft | 0 kts | 249° |
| 2026-05-01 11:31 | 41.80949 | 12.26897 | 15 ft | 12 kts | 249° |
| 2026-05-01 11:31 | 41.80835 | 12.26481 | 21 ft | 82 kts | 250° |
| 2026-05-01 11:31 | 41.80559 | 12.25481 | 19 ft | 144 kts | 250° |
| 2026-05-01 11:32 | 41.80158 | 12.24035 | 199 ft | 176 kts | 249° |
| 2026-05-01 11:32 | 41.79710 | 12.22424 | 658 ft | 190 kts | 249° |
| 2026-05-01 11:32 | 41.79307 | 12.20690 | 1221 ft | 199 kts | 260° |
| 2026-05-01 11:32 | 41.79235 | 12.18838 | 1769 ft | 210 kts | 270° |
| 2026-05-01 11:33 | 41.79330 | 12.16819 | 2274 ft | 222 kts | 276° |
| 2026-05-01 11:33 | 41.79507 | 12.14699 | 2694 ft | 239 kts | 271° |
| 2026-05-01 11:33 | 41.79424 | 12.12388 | 3010 ft | 258 kts | 264° |
| 2026-05-01 11:33 | 41.79226 | 12.09960 | 3522 ft | 265 kts | 263° |
| 2026-05-01 11:34 | 41.79074 | 12.07488 | 4144 ft | 267 kts | 266° |
| 2026-05-01 11:34 | 41.79017 | 12.04980 | 4743 ft | 270 kts | 269° |
| 2026-05-01 11:34 | 41.79006 | 12.02449 | 5320 ft | 273 kts | 270° |
| 2026-05-01 11:34 | 41.79009 | 11.99894 | 5807 ft | 276 kts | 270° |
| 2026-05-01 11:35 | 41.79012 | 11.97310 | 6291 ft | 278 kts | 270° |
| 2026-05-01 11:35 | 41.79012 | 11.94711 | 6765 ft | 280 kts | 269° |
| 2026-05-01 11:35 | 41.79007 | 11.92085 | 7228 ft | 283 kts | 269° |
| 2026-05-01 11:35 | 41.79000 | 11.89472 | 7676 ft | 285 kts | 269° |
| 2026-05-01 11:36 | 41.78991 | 11.86806 | 8121 ft | 287 kts | 269° |
| 2026-05-01 11:36 | 41.78981 | 11.84122 | 8553 ft | 289 kts | 269° |
| 2026-05-01 11:36 | 41.79209 | 11.81437 | 8925 ft | 293 kts | 288° |
| 2026-05-01 11:36 | 41.80180 | 11.79046 | 9354 ft | 294 kts | 306° |
| 2026-05-01 11:37 | 41.81444 | 11.76869 | 9744 ft | 297 kts | 308° |
| 2026-05-01 11:37 | 41.82752 | 11.74707 | 10137 ft | 300 kts | 309° |
| 2026-05-01 11:37 | 41.84092 | 11.72483 | 10258 ft | 313 kts | 308° |
| 2026-05-01 11:37 | 41.85473 | 11.70154 | 10372 ft | 325 kts | 308° |
| 2026-05-01 11:38 | 41.86893 | 11.67731 | 10482 ft | 336 kts | 308° |
| 2026-05-01 11:38 | 41.88353 | 11.65222 | 10591 ft | 346 kts | 307° |
| 2026-05-01 11:38 | 41.89845 | 11.62651 | 10866 ft | 350 kts | 307° |
| 2026-05-01 11:38 | 41.91344 | 11.60060 | 11206 ft | 352 kts | 307° |
| 2026-05-01 11:39 | 41.92849 | 11.57451 | 11534 ft | 354 kts | 307° |
| 2026-05-01 11:39 | 41.94367 | 11.54831 | 11856 ft | 356 kts | 307° |
| 2026-05-01 11:39 | 41.95895 | 11.52194 | 12171 ft | 358 kts | 307° |
| 2026-05-01 11:39 | 41.97429 | 11.49543 | 12476 ft | 360 kts | 307° |
| 2026-05-01 11:40 | 41.98971 | 11.46875 | 12775 ft | 362 kts | 307° |
| 2026-05-01 11:40 | 42.00520 | 11.44190 | 13064 ft | 364 kts | 307° |
| 2026-05-01 11:40 | 42.02076 | 11.41491 | 13345 ft | 366 kts | 307° |
| 2026-05-01 11:40 | 42.03637 | 11.38779 | 13619 ft | 368 kts | 307° |
| 2026-05-01 11:41 | 42.05206 | 11.36053 | 13887 ft | 369 kts | 307° |
| 2026-05-01 11:41 | 42.06780 | 11.33314 | 14144 ft | 371 kts | 307° |
| 2026-05-01 11:41 | 42.08361 | 11.30561 | 14395 ft | 373 kts | 307° |
| 2026-05-01 11:41 | 42.09950 | 11.27790 | 14640 ft | 374 kts | 307° |
| 2026-05-01 11:42 | 42.11545 | 11.25009 | 14878 ft | 376 kts | 307° |
| 2026-05-01 11:42 | 42.13144 | 11.22216 | 15109 ft | 377 kts | 307° |
| 2026-05-01 11:42 | 42.14749 | 11.19411 | 15334 ft | 379 kts | 307° |
| 2026-05-01 11:42 | 42.16360 | 11.16594 | 15550 ft | 380 kts | 307° |
| 2026-05-01 11:43 | 42.17976 | 11.13764 | 15759 ft | 382 kts | 307° |
| 2026-05-01 11:43 | 42.19601 | 11.10916 | 15963 ft | 383 kts | 307° |
| 2026-05-01 11:43 | 42.21207 | 11.08099 | 16157 ft | 384 kts | 307° |
| 2026-05-01 11:44 | 42.24478 | 11.02353 | 16535 ft | 387 kts | 307° |
| 2026-05-01 11:44 | 42.26119 | 10.99466 | 16713 ft | 388 kts | 307° |
| 2026-05-01 11:44 | 42.27766 | 10.96566 | 16889 ft | 389 kts | 307° |
| 2026-05-01 11:44 | 42.29417 | 10.93657 | 17057 ft | 391 kts | 307° |
| 2026-05-01 11:45 | 42.31071 | 10.90739 | 17220 ft | 392 kts | 307° |
| 2026-05-01 11:45 | 42.32730 | 10.87810 | 17380 ft | 393 kts | 307° |
| 2026-05-01 11:45 | 42.34395 | 10.84866 | 17532 ft | 394 kts | 307° |
| 2026-05-01 11:45 | 42.36062 | 10.81916 | 17686 ft | 395 kts | 307° |
| 2026-05-01 11:46 | 42.37734 | 10.78955 | 17834 ft | 396 kts | 307° |
| 2026-05-01 11:46 | 42.39406 | 10.75992 | 17980 ft | 397 kts | 307° |
| 2026-05-01 11:46 | 42.41084 | 10.73014 | 18123 ft | 398 kts | 307° |
| 2026-05-01 11:46 | 42.42765 | 10.70028 | 18260 ft | 399 kts | 307° |
| 2026-05-01 11:47 | 42.44450 | 10.67033 | 18400 ft | 400 kts | 307° |
| 2026-05-01 11:47 | 42.46135 | 10.64030 | 18529 ft | 401 kts | 306° |
| 2026-05-01 11:47 | 42.47816 | 10.60999 | 18652 ft | 402 kts | 306° |
| 2026-05-01 11:47 | 42.49499 | 10.57960 | 18774 ft | 403 kts | 306° |
| 2026-05-01 11:48 | 42.51166 | 10.54962 | 18891 ft | 404 kts | 306° |
| 2026-05-01 11:48 | 42.52860 | 10.51925 | 19008 ft | 405 kts | 306° |
| 2026-05-01 11:48 | 42.54563 | 10.48880 | 19123 ft | 405 kts | 306° |
| 2026-05-01 11:48 | 42.56269 | 10.45828 | 19235 ft | 406 kts | 306° |
| 2026-05-01 11:49 | 42.57979 | 10.42769 | 19346 ft | 407 kts | 306° |
| 2026-05-01 11:49 | 42.59690 | 10.39706 | 19456 ft | 408 kts | 306° |
| 2026-05-01 11:49 | 42.61409 | 10.36637 | 19562 ft | 409 kts | 307° |
| 2026-05-01 11:49 | 42.63140 | 10.33569 | 19668 ft | 409 kts | 307° |
| 2026-05-01 11:50 | 42.64870 | 10.30491 | 19773 ft | 410 kts | 307° |
| 2026-05-01 11:50 | 42.66595 | 10.27403 | 19873 ft | 411 kts | 307° |
| 2026-05-01 11:50 | 42.68321 | 10.24297 | 19973 ft | 412 kts | 307° |
| 2026-05-01 11:50 | 42.70045 | 10.21186 | 20070 ft | 412 kts | 307° |
| 2026-05-01 11:51 | 42.71752 | 10.18107 | 20579 ft | 400 kts | 307° |
| 2026-05-01 11:51 | 42.73422 | 10.15088 | 20754 ft | 400 kts | 307° |
| 2026-05-01 11:51 | 42.75097 | 10.12052 | 20794 ft | 403 kts | 306° |
| 2026-05-01 11:51 | 42.76783 | 10.08990 | 20824 ft | 405 kts | 306° |
| 2026-05-01 11:52 | 42.78477 | 10.05911 | 20856 ft | 408 kts | 306° |
| 2026-05-01 11:52 | 42.80186 | 10.02805 | 20888 ft | 410 kts | 306° |
| 2026-05-01 11:52 | 42.81893 | 9.99700 | 20920 ft | 412 kts | 306° |
| 2026-05-01 11:52 | 42.83625 | 9.96546 | 20951 ft | 414 kts | 306° |
| 2026-05-01 11:53 | 42.85333 | 9.93433 | 20984 ft | 416 kts | 306° |
| 2026-05-01 11:53 | 42.87069 | 9.90264 | 21016 ft | 418 kts | 306° |
| 2026-05-01 11:53 | 42.88812 | 9.87081 | 21055 ft | 420 kts | 306° |
| 2026-05-01 11:53 | 42.90560 | 9.83884 | 21125 ft | 420 kts | 306° |
| 2026-05-01 11:54 | 42.92314 | 9.80671 | 21198 ft | 421 kts | 306° |
| 2026-05-01 11:54 | 42.93961 | 9.77360 | 21260 ft | 421 kts | 301° |
| 2026-05-01 11:54 | 42.95433 | 9.73892 | 21329 ft | 421 kts | 297° |
| 2026-05-01 11:54 | 42.96731 | 9.70306 | 21393 ft | 422 kts | 294° |
| 2026-05-01 11:55 | 42.97854 | 9.66601 | 21460 ft | 422 kts | 291° |
| 2026-05-01 11:55 | 42.98919 | 9.62922 | 21519 ft | 423 kts | 291° |
| 2026-05-01 11:55 | 43.00018 | 9.59192 | 21581 ft | 423 kts | 291° |
| 2026-05-01 11:55 | 43.01119 | 9.55462 | 21643 ft | 424 kts | 291° |
| 2026-05-01 11:56 | 43.02218 | 9.51724 | 21707 ft | 424 kts | 291° |
| 2026-05-01 11:56 | 43.03315 | 9.47974 | 21763 ft | 425 kts | 291° |
| 2026-05-01 11:56 | 43.04408 | 9.44223 | 21824 ft | 425 kts | 291° |
| 2026-05-01 11:56 | 43.05500 | 9.40468 | 21880 ft | 425 kts | 291° |
| 2026-05-01 11:57 | 43.06592 | 9.36707 | 21941 ft | 426 kts | 291° |
| 2026-05-01 11:57 | 43.07315 | 9.34212 | 21976 ft | 426 kts | 291° |
| 2026-05-01 11:57 | 43.08776 | 9.29165 | 22043 ft | 427 kts | 291° |
| 2026-05-01 11:57 | 43.09868 | 9.25386 | 22094 ft | 427 kts | 291° |
| 2026-05-01 11:58 | 43.10959 | 9.21605 | 22149 ft | 427 kts | 291° |
| 2026-05-01 11:58 | 43.12050 | 9.17820 | 22196 ft | 428 kts | 291° |
| 2026-05-01 11:58 | 43.14233 | 9.10226 | 22294 ft | 429 kts | 291° |
| 2026-05-01 11:59 | 43.15325 | 9.06418 | 22341 ft | 429 kts | 291° |
| 2026-05-01 11:59 | 43.16399 | 9.02667 | 22386 ft | 429 kts | 291° |
| 2026-05-01 11:59 | 43.17489 | 8.98858 | 22436 ft | 429 kts | 291° |
| 2026-05-01 12:00 | 43.19640 | 8.91224 | 23553 ft | 418 kts | 295° |
| 2026-05-01 12:00 | 43.20679 | 8.87554 | 24299 ft | 411 kts | 295° |
| 2026-05-01 12:00 | 43.22778 | 8.80210 | 24919 ft | 416 kts | 295° |
| 2026-05-01 12:01 | 43.23830 | 8.76512 | 25272 ft | 416 kts | 295° |
| 2026-05-01 12:01 | 43.24867 | 8.72856 | 25604 ft | 418 kts | 295° |
| 2026-05-01 12:01 | 43.25920 | 8.69137 | 25901 ft | 420 kts | 294° |
| 2026-05-01 12:01 | 43.26977 | 8.65390 | 26227 ft | 421 kts | 294° |
| 2026-05-01 12:02 | 43.28035 | 8.61635 | 26577 ft | 421 kts | 294° |
| 2026-05-01 12:02 | 43.29096 | 8.57864 | 26885 ft | 423 kts | 294° |
| 2026-05-01 12:02 | 43.30155 | 8.54093 | 27240 ft | 424 kts | 294° |
| 2026-05-01 12:02 | 43.30858 | 8.51591 | 27442 ft | 425 kts | 294° |
| 2026-05-01 12:03 | 43.31923 | 8.47794 | 27738 ft | 427 kts | 294° |
| 2026-05-01 12:03 | 43.32994 | 8.43973 | 28012 ft | 429 kts | 294° |
| 2026-05-01 12:03 | 43.34414 | 8.38888 | 28432 ft | 430 kts | 293° |
| 2026-05-01 12:03 | 43.35139 | 8.36287 | 28622 ft | 431 kts | 293° |
| 2026-05-01 12:04 | 43.36213 | 8.32432 | 28896 ft | 433 kts | 293° |
| 2026-05-01 12:04 | 43.37275 | 8.28616 | 29184 ft | 434 kts | 293° |
| 2026-05-01 12:04 | 43.38370 | 8.24675 | 29468 ft | 435 kts | 293° |
| 2026-05-01 12:04 | 43.39437 | 8.20829 | 29734 ft | 437 kts | 293° |
| 2026-05-01 12:05 | 43.40520 | 8.16917 | 30035 ft | 438 kts | 293° |
| 2026-05-01 12:05 | 43.42693 | 8.09052 | 30529 ft | 442 kts | 292° |
| 2026-05-01 12:05 | 43.43782 | 8.05096 | 30777 ft | 443 kts | 293° |
| 2026-05-01 12:06 | 43.44872 | 8.01134 | 31074 ft | 443 kts | 292° |
| 2026-05-01 12:06 | 43.45968 | 7.97147 | 31256 ft | 446 kts | 292° |
| 2026-05-01 12:06 | 43.47062 | 7.93154 | 31613 ft | 444 kts | 292° |
| 2026-05-01 12:06 | 43.48152 | 7.89171 | 31858 ft | 446 kts | 292° |
| 2026-05-01 12:07 | 43.49250 | 7.85159 | 32018 ft | 449 kts | 292° |
| 2026-05-01 12:07 | 43.50350 | 7.81124 | 32235 ft | 450 kts | 292° |
| 2026-05-01 12:07 | 43.51449 | 7.77084 | 32502 ft | 451 kts | 292° |
| 2026-05-01 12:07 | 43.52554 | 7.73020 | 32664 ft | 454 kts | 292° |
| 2026-05-01 12:08 | 43.53660 | 7.68945 | 32881 ft | 454 kts | 292° |
| 2026-05-01 12:08 | 43.54765 | 7.64863 | 33125 ft | 454 kts | 292° |
| 2026-05-01 12:08 | 43.55858 | 7.60824 | 33237 ft | 456 kts | 292° |
| 2026-05-01 12:08 | 43.56967 | 7.56719 | 33411 ft | 456 kts | 292° |
| 2026-05-01 12:09 | 43.58071 | 7.52627 | 33627 ft | 455 kts | 292° |
| 2026-05-01 12:09 | 43.59176 | 7.48519 | 33688 ft | 458 kts | 292° |
| 2026-05-01 12:09 | 43.61499 | 7.40326 | 33878 ft | 458 kts | 297° |
| 2026-05-01 12:10 | 43.63019 | 7.36468 | 34032 ft | 456 kts | 303° |
| 2026-05-01 12:10 | 43.66807 | 7.29491 | 34325 ft | 454 kts | 311° |
| 2026-05-01 12:11 | 43.72831 | 7.19434 | 34318 ft | 453 kts | 310° |
| 2026-05-01 12:11 | 43.76835 | 7.12707 | 34311 ft | 453 kts | 310° |
| 2026-05-01 12:12 | 43.80836 | 7.05977 | 34337 ft | 452 kts | 310° |
| 2026-05-01 12:12 | 43.84847 | 6.99219 | 34337 ft | 455 kts | 310° |
| 2026-05-01 12:13 | 43.88858 | 6.92443 | 34335 ft | 455 kts | 310° |
| 2026-05-01 12:13 | 43.92868 | 6.85651 | 34331 ft | 454 kts | 310° |
| 2026-05-01 12:14 | 43.96833 | 6.78923 | 34311 ft | 451 kts | 310° |
| 2026-05-01 12:14 | 44.00805 | 6.72165 | 34314 ft | 452 kts | 310° |
| 2026-05-01 12:15 | 44.04781 | 6.65383 | 34302 ft | 453 kts | 310° |
| 2026-05-01 12:15 | 44.08755 | 6.58591 | 34299 ft | 453 kts | 310° |
| 2026-05-01 12:16 | 44.12726 | 6.51787 | 34300 ft | 453 kts | 310° |
| 2026-05-01 12:16 | 44.16674 | 6.45011 | 34287 ft | 453 kts | 309° |
| 2026-05-01 12:17 | 44.20650 | 6.38173 | 34288 ft | 454 kts | 308° |
| 2026-05-01 12:17 | 44.24612 | 6.31333 | 34290 ft | 453 kts | 308° |
| 2026-05-01 12:18 | 44.28575 | 6.24479 | 34286 ft | 454 kts | 308° |
| 2026-05-01 12:18 | 44.32538 | 6.17612 | 34289 ft | 454 kts | 308° |
| 2026-05-01 12:19 | 44.36494 | 6.10738 | 34283 ft | 454 kts | 308° |
| 2026-05-01 12:19 | 44.40451 | 6.03850 | 34284 ft | 455 kts | 308° |
| 2026-05-01 12:20 | 44.44408 | 5.96942 | 34284 ft | 454 kts | 308° |
| 2026-05-01 12:20 | 44.48331 | 5.90074 | 34284 ft | 454 kts | 308° |
| 2026-05-01 12:21 | 44.52277 | 5.83153 | 34289 ft | 454 kts | 308° |
| 2026-05-01 12:21 | 44.56221 | 5.76218 | 34283 ft | 454 kts | 308° |
| 2026-05-01 12:22 | 44.60162 | 5.69273 | 34285 ft | 455 kts | 307° |
| 2026-05-01 12:22 | 44.64099 | 5.62312 | 34283 ft | 455 kts | 307° |
| 2026-05-01 12:23 | 44.68033 | 5.55342 | 34279 ft | 455 kts | 307° |
| 2026-05-01 12:23 | 44.71962 | 5.48367 | 34278 ft | 455 kts | 307° |
| 2026-05-01 12:24 | 44.75889 | 5.41374 | 34270 ft | 455 kts | 307° |
| 2026-05-01 12:24 | 44.79805 | 5.34384 | 34271 ft | 455 kts | 307° |
| 2026-05-01 12:25 | 44.85694 | 5.23841 | 34270 ft | 456 kts | 307° |
| 2026-05-01 12:26 | 44.89592 | 5.16840 | 34258 ft | 456 kts | 307° |
| 2026-05-01 12:26 | 44.95456 | 5.06278 | 34276 ft | 456 kts | 306° |
| 2026-05-01 12:27 | 45.01310 | 4.95695 | 34283 ft | 456 kts | 306° |
| 2026-05-01 12:28 | 45.07177 | 4.85045 | 34260 ft | 457 kts | 306° |
| 2026-05-01 12:29 | 45.13024 | 4.74395 | 34242 ft | 456 kts | 306° |
| 2026-05-01 12:29 | 45.18127 | 4.63103 | 34242 ft | 453 kts | 289° |
| 2026-05-01 12:30 | 45.19556 | 4.54458 | 34253 ft | 452 kts | 274° |
| 2026-05-01 12:30 | 45.19886 | 4.50027 | 34257 ft | 451 kts | 275° |
| 2026-05-01 12:31 | 45.20604 | 4.41182 | 34258 ft | 452 kts | 276° |
| 2026-05-01 12:31 | 45.21321 | 4.32323 | 34275 ft | 451 kts | 276° |
| 2026-05-01 12:32 | 45.22024 | 4.23468 | 34261 ft | 452 kts | 275° |
| 2026-05-01 12:32 | 45.23063 | 4.10181 | 34263 ft | 454 kts | 275° |
| 2026-05-01 12:33 | 45.23749 | 4.01285 | 34271 ft | 454 kts | 275° |
| 2026-05-01 12:33 | 45.24429 | 3.92378 | 34274 ft | 454 kts | 275° |
| 2026-05-01 12:34 | 45.25117 | 3.83476 | 34276 ft | 454 kts | 277° |
| 2026-05-01 12:34 | 45.25865 | 3.79113 | 34275 ft | 458 kts | 288° |
| 2026-05-01 12:34 | 45.27182 | 3.74993 | 34273 ft | 460 kts | 298° |
| 2026-05-01 12:35 | 45.31316 | 3.68039 | 34255 ft | 466 kts | 317° |
| 2026-05-01 12:35 | 45.36225 | 3.62039 | 34249 ft | 464 kts | 316° |
| 2026-05-01 12:36 | 45.41098 | 3.55985 | 34244 ft | 465 kts | 316° |
| 2026-05-01 12:36 | 45.45933 | 3.49956 | 34245 ft | 464 kts | 316° |
| 2026-05-01 12:37 | 45.50791 | 3.43887 | 34243 ft | 464 kts | 316° |
| 2026-05-01 12:37 | 45.55647 | 3.37807 | 34246 ft | 464 kts | 316° |
| 2026-05-01 12:38 | 45.60492 | 3.31726 | 34242 ft | 464 kts | 316° |
| 2026-05-01 12:38 | 45.65346 | 3.25620 | 34242 ft | 464 kts | 316° |
| 2026-05-01 12:39 | 45.70159 | 3.19551 | 34240 ft | 464 kts | 316° |
| 2026-05-01 12:39 | 45.74999 | 3.13435 | 34251 ft | 462 kts | 315° |
| 2026-05-01 12:40 | 45.79809 | 3.07340 | 34244 ft | 462 kts | 315° |
| 2026-05-01 12:40 | 45.84618 | 3.01229 | 34248 ft | 462 kts | 315° |
| 2026-05-01 12:41 | 45.89425 | 2.95109 | 34252 ft | 462 kts | 315° |
| 2026-05-01 12:41 | 45.94221 | 2.88949 | 34243 ft | 460 kts | 312° |
| 2026-05-01 12:42 | 45.96249 | 2.85505 | 34239 ft | 456 kts | 301° |
| 2026-05-01 12:42 | 45.97821 | 2.81570 | 34241 ft | 452 kts | 292° |
| 2026-05-01 12:42 | 45.99429 | 2.72933 | 34243 ft | 447 kts | 273° |
| 2026-05-01 12:43 | 45.99286 | 2.64022 | 34245 ft | 446 kts | 266° |
| 2026-05-01 12:43 | 45.99021 | 2.55110 | 34244 ft | 446 kts | 266° |
| 2026-05-01 12:44 | 45.98752 | 2.46201 | 34247 ft | 446 kts | 266° |
| 2026-05-01 12:45 | 45.98179 | 2.28371 | 34253 ft | 448 kts | 266° |
| 2026-05-01 12:45 | 45.97881 | 2.19431 | 34250 ft | 448 kts | 266° |
| 2026-05-01 12:46 | 45.97575 | 2.10459 | 34253 ft | 448 kts | 266° |
| 2026-05-01 12:46 | 45.97264 | 2.01556 | 34251 ft | 448 kts | 266° |
| 2026-05-01 12:47 | 45.96943 | 1.92578 | 34252 ft | 450 kts | 266° |
| 2026-05-01 12:47 | 45.96219 | 1.83698 | 34253 ft | 449 kts | 258° |
| 2026-05-01 12:48 | 45.94681 | 1.74999 | 34248 ft | 452 kts | 255° |
| 2026-05-01 12:48 | 45.93128 | 1.66255 | 34248 ft | 452 kts | 255° |
| 2026-05-01 12:49 | 45.91820 | 1.58905 | 34250 ft | 452 kts | 255° |
| 2026-05-01 12:49 | 45.90250 | 1.50134 | 34243 ft | 455 kts | 255° |
| 2026-05-01 12:50 | 45.88673 | 1.41382 | 34240 ft | 454 kts | 255° |
| 2026-05-01 12:50 | 45.87087 | 1.32617 | 34239 ft | 454 kts | 255° |
| 2026-05-01 12:51 | 45.85497 | 1.23874 | 34239 ft | 454 kts | 255° |
| 2026-05-01 12:52 | 45.83094 | 1.10733 | 34237 ft | 456 kts | 255° |
| 2026-05-01 12:52 | 45.82418 | 1.01679 | 34238 ft | 458 kts | 272° |
| 2026-05-01 12:52 | 45.82806 | 0.97131 | 34237 ft | 460 kts | 280° |
| 2026-05-01 12:53 | 45.85535 | 0.83918 | 34235 ft | 461 kts | 285° |
| 2026-05-01 12:54 | 45.87375 | 0.75152 | 34230 ft | 463 kts | 285° |
| 2026-05-01 12:54 | 45.90140 | 0.61879 | 34225 ft | 462 kts | 285° |
| 2026-05-01 12:55 | 45.92891 | 0.48601 | 34222 ft | 463 kts | 285° |
| 2026-05-01 12:56 | 45.94719 | 0.39733 | 34219 ft | 463 kts | 285° |
| 2026-05-01 12:56 | 45.96541 | 0.30853 | 34216 ft | 463 kts | 284° |
| 2026-05-01 12:57 | 45.98356 | 0.21966 | 34215 ft | 461 kts | 284° |
| 2026-05-01 12:57 | 46.01055 | 0.08672 | 34215 ft | 462 kts | 284° |
| 2026-05-01 12:58 | 46.02848 | -0.00204 | 34198 ft | 462 kts | 284° |
| 2026-05-01 12:59 | 46.05525 | -0.13532 | 34192 ft | 462 kts | 284° |
| 2026-05-01 12:59 | 46.08174 | -0.26811 | 34192 ft | 462 kts | 284° |
| 2026-05-01 13:00 | 46.10803 | -0.40082 | 34196 ft | 462 kts | 284° |
| 2026-05-01 13:01 | 46.13430 | -0.53434 | 34192 ft | 462 kts | 284° |
| 2026-05-01 13:02 | 46.16041 | -0.66792 | 34189 ft | 462 kts | 284° |
| 2026-05-01 13:07 | 46.59447 | -1.38592 | 34210 ft | 467 kts | 316° |
| 2026-05-01 13:07 | 46.61778 | -1.41885 | 34211 ft | 466 kts | 310° |
| 2026-05-01 13:08 | 46.66261 | -1.48723 | 34211 ft | 466 kts | 311° |
| 2026-05-01 13:08 | 46.70759 | -1.55520 | 34209 ft | 466 kts | 311° |
| 2026-05-01 13:09 | 46.75222 | -1.62295 | 34206 ft | 466 kts | 311° |
| 2026-05-01 13:09 | 46.79695 | -1.69113 | 34205 ft | 464 kts | 311° |
| 2026-05-01 13:10 | 46.84163 | -1.75943 | 34204 ft | 465 kts | 311° |
| 2026-05-01 13:10 | 46.88625 | -1.82780 | 34200 ft | 464 kts | 311° |
| 2026-05-01 13:11 | 46.93053 | -1.89582 | 34200 ft | 465 kts | 311° |
| 2026-05-01 13:11 | 46.97505 | -1.96440 | 34201 ft | 464 kts | 311° |
| 2026-05-01 13:12 | 47.01962 | -2.03308 | 34203 ft | 465 kts | 311° |
| 2026-05-01 13:12 | 47.06499 | -2.10027 | 34200 ft | 462 kts | 312° |
| 2026-05-01 13:13 | 47.11038 | -2.16728 | 34210 ft | 463 kts | 312° |
| 2026-05-01 13:13 | 47.15568 | -2.23468 | 34210 ft | 463 kts | 312° |
| 2026-05-01 13:14 | 47.20095 | -2.30235 | 34209 ft | 464 kts | 311° |
| 2026-05-01 13:14 | 47.24593 | -2.36974 | 34210 ft | 464 kts | 311° |
| 2026-05-01 13:15 | 47.29115 | -2.43768 | 34209 ft | 464 kts | 311° |
| 2026-05-01 13:15 | 47.33628 | -2.50565 | 34211 ft | 463 kts | 311° |
| 2026-05-01 13:16 | 47.38120 | -2.57346 | 34210 ft | 465 kts | 311° |
| 2026-05-01 13:16 | 47.42641 | -2.64192 | 34207 ft | 465 kts | 311° |
| 2026-05-01 13:17 | 47.51667 | -2.77911 | 34208 ft | 465 kts | 311° |
| 2026-05-01 13:18 | 47.58330 | -2.88370 | 34214 ft | 465 kts | 306° |
| 2026-05-01 13:18 | 47.62013 | -2.96199 | 34189 ft | 462 kts | 301° |
| 2026-05-01 13:19 | 47.65581 | -3.04034 | 34198 ft | 462 kts | 301° |
| 2026-05-01 13:20 | 47.70973 | -3.15875 | 34207 ft | 462 kts | 301° |
| 2026-05-01 13:20 | 47.74551 | -3.23783 | 34226 ft | 461 kts | 301° |
| 2026-05-01 13:21 | 47.79944 | -3.35758 | 34239 ft | 466 kts | 300° |
| 2026-05-01 13:21 | 47.83569 | -3.43835 | 34196 ft | 471 kts | 300° |
| 2026-05-01 13:22 | 47.87192 | -3.51933 | 34196 ft | 473 kts | 300° |
| 2026-05-01 13:22 | 47.90842 | -3.60116 | 34201 ft | 475 kts | 300° |
| 2026-05-01 13:23 | 47.94497 | -3.68331 | 34204 ft | 475 kts | 300° |
| 2026-05-01 13:23 | 47.98151 | -3.76574 | 34204 ft | 477 kts | 300° |
| 2026-05-01 13:24 | 48.01816 | -3.84859 | 34211 ft | 479 kts | 299° |
| 2026-05-01 13:25 | 48.07284 | -3.97275 | 34208 ft | 479 kts | 299° |
| 2026-05-01 13:25 | 48.10942 | -4.05616 | 34209 ft | 479 kts | 299° |
| 2026-05-01 13:26 | 48.14592 | -4.13962 | 34209 ft | 479 kts | 298° |
| 2026-05-01 13:26 | 48.18244 | -4.22343 | 34208 ft | 481 kts | 299° |
| 2026-05-01 13:27 | 48.21901 | -4.30751 | 34226 ft | 482 kts | 298° |
| 2026-05-01 13:27 | 48.27361 | -4.43359 | 34196 ft | 482 kts | 298° |
| 2026-05-01 13:28 | 48.32832 | -4.56054 | 34211 ft | 482 kts | 298° |
| 2026-05-01 13:29 | 48.40110 | -4.73038 | 34228 ft | 484 kts | 298° |
| 2026-05-01 13:31 | 48.51015 | -4.98682 | 34204 ft | 485 kts | 298° |
| 2026-05-01 13:32 | 48.60069 | -5.20163 | 34221 ft | 488 kts | 298° |
| 2026-05-01 13:33 | 48.69158 | -5.41897 | 34216 ft | 489 kts | 297° |
| 2026-05-01 13:34 | 48.76407 | -5.59359 | 34217 ft | 489 kts | 297° |
| 2026-05-01 13:35 | 48.81799 | -5.72420 | 34213 ft | 489 kts | 297° |
| 2026-05-01 13:36 | 48.87192 | -5.85547 | 34214 ft | 488 kts | 296° |
| 2026-05-01 13:36 | 48.91986 | -5.97275 | 34208 ft | 488 kts | 296° |
| 2026-05-01 13:37 | 48.95560 | -6.06056 | 34208 ft | 489 kts | 296° |
| 2026-05-01 13:37 | 48.99118 | -6.14821 | 34209 ft | 490 kts | 296° |
| 2026-05-01 13:38 | 49.04459 | -6.28131 | 34208 ft | 490 kts | 296° |
| 2026-05-01 13:39 | 49.08014 | -6.36992 | 34202 ft | 490 kts | 296° |
| 2026-05-01 13:39 | 49.11573 | -6.45855 | 34202 ft | 490 kts | 296° |
| 2026-05-01 13:40 | 49.15128 | -6.54736 | 34202 ft | 491 kts | 296° |
| 2026-05-01 13:40 | 49.18688 | -6.63659 | 34195 ft | 492 kts | 296° |
| 2026-05-01 13:41 | 49.22245 | -6.72604 | 34194 ft | 492 kts | 295° |
| 2026-05-01 13:41 | 49.25793 | -6.81557 | 34198 ft | 492 kts | 295° |
| 2026-05-01 13:42 | 49.29332 | -6.90522 | 34197 ft | 492 kts | 295° |
| 2026-05-01 13:42 | 49.32839 | -6.99432 | 34191 ft | 492 kts | 295° |
| 2026-05-01 13:43 | 49.36264 | -7.08465 | 34191 ft | 488 kts | 290° |
| 2026-05-01 13:43 | 49.38633 | -7.18110 | 34185 ft | 479 kts | 278° |
| 2026-05-01 13:44 | 49.40036 | -7.28051 | 34186 ft | 476 kts | 276° |
| 2026-05-01 13:44 | 49.41452 | -7.37983 | 34181 ft | 476 kts | 276° |
| 2026-05-01 13:45 | 49.42852 | -7.47912 | 34182 ft | 475 kts | 276° |
| 2026-05-01 13:45 | 49.44237 | -7.57856 | 34174 ft | 475 kts | 276° |
| 2026-05-01 13:46 | 49.45609 | -7.67802 | 34177 ft | 476 kts | 276° |
| 2026-05-01 13:46 | 49.46977 | -7.77765 | 34172 ft | 476 kts | 276° |
| 2026-05-01 13:47 | 49.48325 | -7.87658 | 34178 ft | 476 kts | 276° |
| 2026-05-01 13:47 | 49.49675 | -7.97633 | 34169 ft | 477 kts | 276° |
| 2026-05-01 13:48 | 49.50757 | -8.07667 | 34168 ft | 474 kts | 273° |
| 2026-05-01 13:48 | 49.51770 | -8.17736 | 34168 ft | 477 kts | 274° |
| 2026-05-01 13:49 | 49.52796 | -8.27831 | 34157 ft | 478 kts | 274° |
| 2026-05-01 13:49 | 49.53817 | -8.37964 | 34163 ft | 478 kts | 274° |
| 2026-05-01 13:50 | 49.54816 | -8.48034 | 34152 ft | 479 kts | 274° |
| 2026-05-01 13:50 | 49.55809 | -8.58182 | 34157 ft | 479 kts | 274° |
| 2026-05-01 13:51 | 49.56793 | -8.68342 | 34151 ft | 480 kts | 274° |
| 2026-05-01 13:51 | 49.57770 | -8.78516 | 34147 ft | 480 kts | 274° |
| 2026-05-01 13:52 | 49.58740 | -8.88714 | 34139 ft | 480 kts | 274° |
| 2026-05-01 13:52 | 49.59692 | -8.98826 | 34141 ft | 480 kts | 274° |
| 2026-05-01 13:53 | 49.60643 | -9.09046 | 34140 ft | 480 kts | 274° |
| 2026-05-01 13:53 | 49.62049 | -9.24299 | 34140 ft | 480 kts | 274° |
| 2026-05-01 13:54 | 49.62974 | -9.34474 | 34141 ft | 479 kts | 274° |
| 2026-05-01 13:54 | 49.63892 | -9.44671 | 34135 ft | 479 kts | 274° |
| 2026-05-01 13:55 | 49.64797 | -9.54828 | 34135 ft | 479 kts | 274° |
| 2026-05-01 13:55 | 49.65700 | -9.65057 | 34130 ft | 479 kts | 274° |
| 2026-05-01 13:56 | 49.66586 | -9.75207 | 34130 ft | 479 kts | 274° |
| 2026-05-01 13:56 | 49.67467 | -9.85403 | 34124 ft | 479 kts | 274° |
| 2026-05-01 13:57 | 49.68335 | -9.95561 | 34139 ft | 479 kts | 274° |
| 2026-05-01 13:57 | 49.69198 | -10.05770 | 34119 ft | 479 kts | 274° |
| 2026-05-01 13:58 | 49.70048 | -10.15926 | 34112 ft | 478 kts | 274° |
| 2026-05-01 13:58 | 49.70894 | -10.26144 | 34113 ft | 478 kts | 273° |
| 2026-05-01 13:59 | 49.71727 | -10.36320 | 34111 ft | 478 kts | 273° |
| 2026-05-01 13:59 | 49.72554 | -10.46535 | 34123 ft | 477 kts | 273° |
| 2026-05-01 14:00 | 49.73363 | -10.56624 | 34109 ft | 475 kts | 272° |
| 2026-05-01 14:00 | 49.74168 | -10.66790 | 34112 ft | 474 kts | 272° |
| 2026-05-01 14:01 | 49.74956 | -10.76868 | 34107 ft | 473 kts | 272° |
| 2026-05-01 14:01 | 49.75737 | -10.86970 | 34102 ft | 473 kts | 272° |
| 2026-05-01 14:02 | 49.76507 | -10.97029 | 34099 ft | 472 kts | 272° |
| 2026-05-01 14:02 | 49.77274 | -11.07175 | 34096 ft | 472 kts | 272° |
| 2026-05-01 14:03 | 49.78023 | -11.17205 | 34094 ft | 472 kts | 272° |
| 2026-05-01 14:03 | 49.78766 | -11.27281 | 34100 ft | 471 kts | 272° |
| 2026-05-01 14:04 | 49.79501 | -11.37372 | 34118 ft | 471 kts | 272° |
| 2026-05-01 14:04 | 49.80105 | -11.45761 | 34093 ft | 472 kts | 272° |
| 2026-05-01 14:05 | 49.80945 | -11.57556 | 34094 ft | 472 kts | 271° |
| 2026-05-01 14:05 | 49.81654 | -11.67656 | 34092 ft | 471 kts | 271° |
| 2026-05-01 14:06 | 49.82354 | -11.77759 | 34103 ft | 472 kts | 271° |
| 2026-05-01 14:06 | 49.83040 | -11.87810 | 34089 ft | 472 kts | 272° |
| 2026-05-01 14:07 | 49.83723 | -11.97931 | 34085 ft | 472 kts | 272° |
| 2026-05-01 14:08 | 49.84735 | -12.13132 | 34092 ft | 472 kts | 272° |
| 2026-05-01 14:08 | 49.85397 | -12.23255 | 34093 ft | 472 kts | 272° |
| 2026-05-01 14:09 | 49.86049 | -12.33383 | 34104 ft | 472 kts | 272° |
| 2026-05-01 14:09 | 49.86690 | -12.43541 | 34100 ft | 474 kts | 273° |
| 2026-05-01 14:10 | 49.87331 | -12.53726 | 34076 ft | 474 kts | 273° |
| 2026-05-01 14:10 | 49.87962 | -12.63920 | 34087 ft | 475 kts | 272° |
| 2026-05-01 14:11 | 49.88582 | -12.74112 | 34074 ft | 475 kts | 272° |
| 2026-05-01 14:11 | 49.89488 | -12.89363 | 34076 ft | 476 kts | 273° |
| 2026-05-01 14:12 | 49.90090 | -12.99609 | 34090 ft | 477 kts | 273° |
| 2026-05-01 14:12 | 49.90683 | -13.09866 | 34097 ft | 477 kts | 273° |
| 2026-05-01 14:13 | 49.91167 | -13.18411 | 34082 ft | 479 kts | 274° |
| 2026-05-01 14:13 | 49.91839 | -13.30405 | 34083 ft | 479 kts | 274° |
| 2026-05-01 14:14 | 49.92408 | -13.40754 | 34081 ft | 481 kts | 274° |
| 2026-05-01 14:14 | 49.92968 | -13.51091 | 34081 ft | 481 kts | 274° |
| 2026-05-01 14:15 | 49.93519 | -13.61451 | 34084 ft | 481 kts | 274° |
| 2026-05-01 14:15 | 49.94062 | -13.71816 | 34084 ft | 482 kts | 274° |
| 2026-05-01 14:16 | 49.94593 | -13.82178 | 34083 ft | 482 kts | 274° |
| 2026-05-01 14:16 | 49.95116 | -13.92509 | 34081 ft | 483 kts | 274° |
| 2026-05-01 14:17 | 49.95633 | -14.02910 | 34084 ft | 483 kts | 274° |
| 2026-05-01 14:17 | 49.96141 | -14.13333 | 34083 ft | 483 kts | 274° |
| 2026-05-01 14:18 | 49.96638 | -14.23738 | 34086 ft | 483 kts | 274° |
| 2026-05-01 14:18 | 49.97045 | -14.32401 | 34086 ft | 483 kts | 274° |
| 2026-05-01 14:19 | 49.97603 | -14.44505 | 34089 ft | 483 kts | 274° |
| 2026-05-01 14:19 | 49.98071 | -14.54914 | 34087 ft | 482 kts | 274° |
| 2026-05-01 14:20 | 49.98758 | -14.70497 | 34088 ft | 482 kts | 274° |
| 2026-05-01 14:21 | 49.99205 | -14.80881 | 34092 ft | 481 kts | 275° |
| 2026-05-01 14:21 | 49.99653 | -14.91271 | 34092 ft | 481 kts | 274° |
| 2026-05-01 14:22 | 50.00085 | -15.06799 | 34093 ft | 481 kts | 272° |
| 2026-05-01 14:22 | 50.00310 | -15.17192 | 34103 ft | 481 kts | 273° |
| 2026-05-01 14:23 | 50.00543 | -15.27623 | 34099 ft | 484 kts | 273° |
| 2026-05-01 14:23 | 50.00720 | -15.36337 | 34103 ft | 486 kts | 273° |
| 2026-05-01 14:24 | 50.00909 | -15.46874 | 34105 ft | 488 kts | 274° |
| 2026-05-01 14:24 | 50.01092 | -15.57448 | 34112 ft | 489 kts | 273° |
| 2026-05-01 14:25 | 50.01259 | -15.68032 | 34110 ft | 490 kts | 274° |
| 2026-05-01 14:25 | 50.01419 | -15.78629 | 34113 ft | 491 kts | 274° |
| 2026-05-01 14:26 | 50.01645 | -15.94564 | 34120 ft | 491 kts | 274° |
| 2026-05-01 14:27 | 50.01782 | -16.05194 | 34135 ft | 491 kts | 274° |
| 2026-05-01 14:27 | 50.01909 | -16.15747 | 34113 ft | 492 kts | 273° |
| 2026-05-01 14:28 | 50.02081 | -16.31699 | 34143 ft | 491 kts | 274° |
| 2026-05-01 14:28 | 50.02184 | -16.42277 | 34128 ft | 491 kts | 274° |
| 2026-05-01 14:29 | 50.02278 | -16.52930 | 34151 ft | 491 kts | 274° |
| 2026-05-01 14:30 | 50.02433 | -16.74125 | 34147 ft | 491 kts | 274° |
| 2026-05-01 14:31 | 50.02528 | -16.90087 | 34166 ft | 492 kts | 274° |
| 2026-05-01 14:31 | 50.02578 | -17.00720 | 34150 ft | 493 kts | 274° |
| 2026-05-01 14:32 | 50.02618 | -17.11396 | 34138 ft | 493 kts | 274° |
| 2026-05-01 14:32 | 50.02647 | -17.22051 | 34169 ft | 493 kts | 275° |
| 2026-05-01 14:33 | 50.02701 | -17.32660 | 34172 ft | 493 kts | 275° |
| 2026-05-01 14:33 | 50.02724 | -17.43345 | 34184 ft | 494 kts | 275° |
| 2026-05-01 14:34 | 50.02725 | -17.54060 | 34179 ft | 496 kts | 275° |
| 2026-05-01 14:34 | 50.02711 | -17.64798 | 34187 ft | 496 kts | 276° |
| 2026-05-01 14:35 | 50.02688 | -17.75556 | 34190 ft | 498 kts | 276° |
| 2026-05-01 14:35 | 50.02657 | -17.86334 | 34199 ft | 498 kts | 276° |
| 2026-05-01 14:36 | 50.02617 | -17.97124 | 34192 ft | 499 kts | 276° |
| 2026-05-01 14:36 | 50.02565 | -18.07920 | 34186 ft | 499 kts | 276° |
| 2026-05-01 14:37 | 50.02501 | -18.18703 | 34205 ft | 499 kts | 276° |
| 2026-05-01 14:37 | 50.02428 | -18.29430 | 34210 ft | 500 kts | 276° |
| 2026-05-01 14:38 | 50.02348 | -18.40251 | 34218 ft | 500 kts | 276° |
| 2026-05-01 14:38 | 50.02259 | -18.51069 | 34215 ft | 500 kts | 276° |
| 2026-05-01 14:39 | 50.02159 | -18.61904 | 34221 ft | 500 kts | 276° |
| 2026-05-01 14:39 | 50.02051 | -18.72725 | 34222 ft | 501 kts | 276° |
| 2026-05-01 14:40 | 50.01932 | -18.83506 | 34220 ft | 501 kts | 275° |
| 2026-05-01 14:40 | 50.01803 | -18.94338 | 34230 ft | 501 kts | 275° |
| 2026-05-01 14:41 | 50.01626 | -19.05174 | 34230 ft | 501 kts | 274° |
| 2026-05-01 14:41 | 50.01426 | -19.15997 | 34235 ft | 501 kts | 274° |
| 2026-05-01 14:42 | 50.01233 | -19.26753 | 34236 ft | 500 kts | 274° |
| 2026-05-01 14:42 | 50.01051 | -19.37567 | 34244 ft | 500 kts | 274° |
| 2026-05-01 14:43 | 50.00880 | -19.48381 | 34244 ft | 500 kts | 274° |
| 2026-05-01 14:43 | 50.00708 | -19.59186 | 34250 ft | 500 kts | 274° |
| 2026-05-01 14:44 | 50.00519 | -19.69998 | 34253 ft | 501 kts | 274° |
| 2026-05-01 14:44 | 50.00215 | -19.86185 | 34256 ft | 501 kts | 274° |
| 2026-05-01 14:45 | 49.99906 | -20.02446 | 34252 ft | 500 kts | 276° |
| 2026-05-01 14:46 | 50.00318 | -20.13166 | 34270 ft | 495 kts | 281° |
| 2026-05-01 14:46 | 50.01170 | -20.29192 | 34272 ft | 496 kts | 282° |
| 2026-05-01 14:47 | 50.01712 | -20.39874 | 34278 ft | 495 kts | 281° |
| 2026-05-01 14:48 | 50.02367 | -20.55927 | 34279 ft | 496 kts | 280° |
| 2026-05-01 14:48 | 50.02961 | -20.72009 | 34284 ft | 497 kts | 280° |
| 2026-05-01 14:49 | 50.03717 | -20.93445 | 34293 ft | 498 kts | 279° |
| 2026-05-01 14:50 | 50.04442 | -21.14977 | 34298 ft | 499 kts | 279° |
| 2026-05-01 14:51 | 50.04931 | -21.31167 | 34306 ft | 500 kts | 278° |
| 2026-05-01 14:52 | 50.05365 | -21.47352 | 34309 ft | 497 kts | 278° |
| 2026-05-01 14:53 | 50.05840 | -21.63302 | 34314 ft | 497 kts | 277° |
| 2026-05-01 14:53 | 50.06021 | -21.69838 | 34321 ft | 497 kts | 277° |
| 2026-05-01 14:54 | 50.06199 | -21.76136 | 34319 ft | 497 kts | 278° |
| 2026-05-01 14:54 | 50.06565 | -21.86795 | 34319 ft | 497 kts | 278° |
| 2026-05-01 14:55 | 50.06887 | -21.97547 | 34325 ft | 497 kts | 278° |
| 2026-05-01 14:55 | 50.07164 | -22.08284 | 34325 ft | 497 kts | 277° |
| 2026-05-01 14:56 | 50.07421 | -22.18979 | 34329 ft | 497 kts | 277° |
| 2026-05-01 14:56 | 50.07566 | -22.25169 | 34329 ft | 497 kts | 277° |
| 2026-05-01 14:57 | 50.07809 | -22.35951 | 34336 ft | 497 kts | 276° |
| 2026-05-01 14:57 | 50.08155 | -22.51943 | 34347 ft | 496 kts | 276° |
| 2026-05-01 14:58 | 50.08378 | -22.62668 | 34346 ft | 495 kts | 276° |
| 2026-05-01 14:58 | 50.08590 | -22.73388 | 34346 ft | 495 kts | 276° |
| 2026-05-01 14:59 | 50.08781 | -22.83389 | 34344 ft | 495 kts | 275° |
| 2026-05-01 14:59 | 50.08950 | -22.92473 | 34352 ft | 495 kts | 275° |
| 2026-05-01 15:00 | 50.09154 | -23.04159 | 34403 ft | 493 kts | 275° |
| 2026-05-01 15:01 | 50.09310 | -23.14790 | 34362 ft | 495 kts | 275° |
| 2026-05-01 15:01 | 50.09468 | -23.25518 | 34356 ft | 495 kts | 275° |
| 2026-05-01 15:02 | 50.09622 | -23.36164 | 34365 ft | 495 kts | 275° |
| 2026-05-01 15:02 | 50.09769 | -23.46889 | 34364 ft | 495 kts | 275° |
| 2026-05-01 15:03 | 50.09904 | -23.57607 | 34369 ft | 494 kts | 275° |
| 2026-05-01 15:03 | 50.10029 | -23.68311 | 34371 ft | 494 kts | 275° |
| 2026-05-01 15:04 | 50.10142 | -23.78835 | 34371 ft | 494 kts | 275° |
| 2026-05-01 15:04 | 50.10247 | -23.89541 | 34371 ft | 494 kts | 274° |
| 2026-05-01 15:05 | 50.10341 | -24.00172 | 34377 ft | 494 kts | 274° |
| 2026-05-01 15:05 | 50.10427 | -24.10822 | 34382 ft | 494 kts | 274° |
| 2026-05-01 15:06 | 50.10503 | -24.21528 | 34384 ft | 494 kts | 274° |
| 2026-05-01 15:06 | 50.10569 | -24.32232 | 34384 ft | 494 kts | 274° |
| 2026-05-01 15:07 | 50.10625 | -24.42879 | 34384 ft | 494 kts | 274° |
| 2026-05-01 15:07 | 50.10672 | -24.53579 | 34387 ft | 494 kts | 274° |
| 2026-05-01 15:08 | 50.10703 | -24.62550 | 34385 ft | 494 kts | 274° |
| 2026-05-01 15:08 | 50.10730 | -24.73199 | 34404 ft | 494 kts | 274° |
| 2026-05-01 15:09 | 50.10750 | -24.83897 | 34398 ft | 494 kts | 274° |
| 2026-05-01 15:09 | 50.10760 | -24.94595 | 34401 ft | 494 kts | 274° |
| 2026-05-01 15:10 | 50.10758 | -25.05304 | 34400 ft | 494 kts | 274° |
| 2026-05-01 15:10 | 50.10739 | -25.21280 | 34406 ft | 494 kts | 274° |
| 2026-05-01 15:11 | 50.10699 | -25.37301 | 34409 ft | 495 kts | 274° |
| 2026-05-01 15:12 | 50.10659 | -25.48018 | 34409 ft | 495 kts | 274° |
| 2026-05-01 15:12 | 50.10580 | -25.64114 | 34417 ft | 495 kts | 274° |
| 2026-05-01 15:14 | 50.10400 | -25.90974 | 34421 ft | 496 kts | 274° |
| 2026-05-01 15:14 | 50.10263 | -26.07047 | 34420 ft | 497 kts | 274° |
| 2026-05-01 15:15 | 50.10045 | -26.28634 | 34427 ft | 498 kts | 274° |
| 2026-05-01 15:16 | 50.09786 | -26.50212 | 34429 ft | 499 kts | 274° |
| 2026-05-01 15:18 | 50.09406 | -26.77256 | 34424 ft | 500 kts | 274° |
| 2026-05-01 15:19 | 50.09058 | -26.98796 | 34443 ft | 499 kts | 273° |
| 2026-05-01 15:19 | 50.08770 | -27.14989 | 34442 ft | 499 kts | 273° |
| 2026-05-01 15:20 | 50.08459 | -27.31196 | 34447 ft | 499 kts | 273° |
| 2026-05-01 15:21 | 50.08239 | -27.42005 | 34449 ft | 499 kts | 273° |
| 2026-05-01 15:21 | 50.08010 | -27.52800 | 34439 ft | 499 kts | 272° |
| 2026-05-01 15:22 | 50.07648 | -27.68958 | 34455 ft | 500 kts | 272° |
| 2026-05-01 15:22 | 50.07394 | -27.79747 | 34455 ft | 500 kts | 272° |
| 2026-05-01 15:23 | 50.07130 | -27.90503 | 34455 ft | 500 kts | 272° |
| 2026-05-01 15:23 | 50.06854 | -28.01321 | 34455 ft | 500 kts | 272° |
| 2026-05-01 15:24 | 50.06569 | -28.12155 | 34453 ft | 501 kts | 272° |
| 2026-05-01 15:24 | 50.06273 | -28.22998 | 34456 ft | 501 kts | 272° |
| 2026-05-01 15:25 | 50.05966 | -28.33843 | 34467 ft | 501 kts | 271° |
| 2026-05-01 15:25 | 50.05651 | -28.44643 | 34456 ft | 502 kts | 271° |
| 2026-05-01 15:26 | 50.05326 | -28.55433 | 34457 ft | 502 kts | 271° |
| 2026-05-01 15:26 | 50.04992 | -28.66220 | 34470 ft | 502 kts | 271° |
| 2026-05-01 15:27 | 50.04644 | -28.77080 | 34461 ft | 502 kts | 271° |
| 2026-05-01 15:28 | 50.04141 | -28.92302 | 34455 ft | 502 kts | 271° |
| 2026-05-01 15:28 | 50.03769 | -29.03160 | 34474 ft | 502 kts | 270° |
| 2026-05-01 15:29 | 50.03253 | -29.17761 | 34470 ft | 501 kts | 270° |
| 2026-05-01 15:30 | 50.02666 | -29.33758 | 34477 ft | 501 kts | 270° |
| 2026-05-01 15:31 | 50.01414 | -29.66244 | 34476 ft | 501 kts | 270° |
| 2026-05-01 15:32 | 50.00543 | -29.87887 | 34480 ft | 501 kts | 270° |
| 2026-05-01 15:34 | 49.99762 | -30.20208 | 34399 ft | 499 kts | 271° |